Airfield :
LOGIN :

Register | Disclaimer

   EN    FR    IT 

 










Legend :    VFR   Marginal VFR   IFR   Intensive IFR   Very Intensive IFR
Visi :
Ceiling :
>= 8 km
>= 3000ft
5 to 8 km
1000 to 3000 ft
1500m to 5 km
500 to 1000 ft
800 to 1500m
200 to 500 ft
< 800m
< 200 ft
Symbols :   Thunderstorms  Fog  Heavy snow  Heavy precipitations  Wind > 20 kt
SIGMETs :     Misc.  Thunderstorms  Icing  Turbulence  Mountain Waves  Volcanic Ashes







- Airport Elevation : 17 ft
- IATA code : GRQ


EHGG - Groningen Eelde

CURRENT METAR :
  • 210655Z AUTO 19003KT 4600 BR NCD M07/M08 Q1022 TEMPO 2500

EXPIRED METARs :
  • 210625Z AUTO 21002KT 2700 BR NCD M09/M10 Q1022 TEMPO 2000
  • 210555Z AUTO 20003KT 3200 BR NSC M08/M09 Q1022 TEMPO 4000
  • 210525Z AUTO 21003KT 4400 BR NSC M08/M09 Q1022 NOSIG
  • 210455Z AUTO 27002KT 2500 BR NSC M08/M09 Q1022
  • 210425Z AUTO 20003KT 3700 BR NSC M08/M08 Q1022

TAF TAF EHGG
Valid from the 21 at 06:00 until the 22 at 12:00 UTC


210503Z 2106/2212 22005KT 2000 BR NSC
PROB40
TEMPO 2106/2109 0700 FZFG
BECMG 2108/2111 9999 NSW BKN020
PROB30
TEMPO 2109/2112 7000 -FZDZRA SCT009 BKN012
PROB30
TEMPO 2118/2124 7000 -PL SCT009 BKN012
BECMG 2204/2207 18013KT
No reported NOTAMs for that airfield.



MET'MAP, your aeronautical weather chart ! - Copyright ORBIFLY December 2007 - Disclaimer

ORBIFLY MET'MAP TEAM :

Programming & Development : Alexandra Zaïnal
Concept & Development : Baudouin d'Aumeries
Co-Development & Prog : Marc-Olivier Méhu
Technical & hardware support : Manuel Goepfert

Contact : metmap@orbifly.com




SOURCES & CREDITS :

   NOAA